Time;durP1;ratioP1;P1;durP2;ratioP2;P2;SDS_P1;SDS_P2;PMS_P1;PMS_P2;Temp;Humidity;BMP_temperature;BMP_pressure;BME280_temperature;BME280_humidity;BME280_pressure;Samples;Min_cycle;Max_cycle;Signal;HPM_P1;HPM_P2
2020/12/01 00:00:13;;;;;;;8.43;5.80;;;;;;;0.32;80.41;100990.31;4967158;28;20210;-70
2020/12/01 00:02:39;;;;;;;9.50;6.10;;;;;;;0.33;80.04;100998.84;4965425;28;20235;-70
2020/12/01 00:05:05;;;;;;;9.63;5.83;;;;;;;0.33;80.57;100978.34;4969019;28;20658;-71
2020/12/01 00:07:31;;;;;;;12.20;6.13;;;;;;;0.33;80.10;100986.03;4967394;28;20562;-70
2020/12/01 00:09:58;;;;;;;7.90;5.73;;;;;;;0.29;79.95;100974.84;4966068;28;20543;-72
2020/12/01 00:12:24;;;;;;;8.87;5.63;;;;;;;0.27;80.35;100989.34;4966199;28;20225;-70
2020/12/01 00:14:50;;;;;;;9.10;5.87;;;;;;;0.21;81.01;100985.78;4966151;28;20199;-70
2020/12/01 00:17:16;;;;;;;9.50;6.23;;;;;;;0.14;80.40;100980.53;4969239;28;20199;-70
2020/12/01 00:19:42;;;;;;;12.00;7.10;;;;;;;0.07;80.92;100985.47;4979709;28;20226;-70
2020/12/01 00:22:08;;;;;;;11.63;7.10;;;;;;;0.04;81.01;100980.28;4966031;28;20327;-71
2020/12/01 00:24:34;;;;;;;11.93;7.10;;;;;;;0.02;81.74;100987.94;4965661;28;20557;-73
2020/12/01 00:27:01;;;;;;;18.00;9.60;;;;;;;0.02;81.63;100969.09;4970245;28;20202;-70
2020/12/01 00:29:26;;;;;;;12.30;7.50;;;;;;;0.01;81.31;100972.53;4969164;28;20209;-72
2020/12/01 00:31:52;;;;;;;10.67;6.47;;;;;;;0.02;81.38;100975.13;4961679;28;20226;-71
2020/12/01 00:34:18;;;;;;;12.47;6.10;;;;;;;0.04;81.98;100970.88;4968824;28;20709;-71
2020/12/01 00:36:44;;;;;;;10.07;6.43;;;;;;;0.04;82.26;100970.03;4966644;28;20245;-72
2020/12/01 00:39:11;;;;;;;10.97;6.73;;;;;;;-0.02;82.04;100966.50;4964720;28;20349;-71
2020/12/01 00:41:38;;;;;;;11.77;7.13;;;;;;;-0.07;82.23;100967.19;4969736;28;20229;-71
2020/12/01 00:44:04;;;;;;;10.47;6.33;;;;;;;-0.15;82.01;100977.28;4966063;28;20190;-70
2020/12/01 00:46:31;;;;;;;9.80;6.20;;;;;;;-0.25;82.36;100976.19;4967497;28;20229;-70
2020/12/01 00:48:58;;;;;;;10.20;5.97;;;;;;;-0.33;82.24;100975.16;4966627;28;20194;-70
2020/12/01 00:51:25;;;;;;;9.17;5.90;;;;;;;-0.43;82.72;100970.63;4963656;28;20253;-73
2020/12/01 00:53:51;;;;;;;11.73;6.00;;;;;;;-0.48;83.72;100964.53;4964047;28;20558;-73
2020/12/01 00:56:20;;;;;;;12.03;6.27;;;;;;;-0.57;83.54;100983.97;4965300;28;20289;-73
2020/12/01 00:58:47;;;;;;;9.17;5.90;;;;;;;-0.63;83.73;100977.84;4980671;28;20711;-73
2020/12/01 01:01:30;;;;;;;13.00;6.30;;;;;;;-0.71;83.88;100977.63;4962520;28;20743;-73
2020/12/01 01:03:59;;;;;;;11.10;6.60;;;;;;;-0.74;84.02;100975.00;4961540;28;20682;-72
2020/12/01 01:06:25;;;;;;;11.03;6.87;;;;;;;-0.80;84.40;100972.28;4966515;28;20210;-73
2020/12/01 01:08:50;;;;;;;10.37;6.97;;;;;;;-0.84;84.78;100968.78;4966841;28;20218;-74
2020/12/01 01:11:16;;;;;;;10.90;6.17;;;;;;;-0.87;84.67;100963.56;4978106;28;20302;-72
2020/12/01 01:13:42;;;;;;;11.03;7.00;;;;;;;-0.86;85.35;100957.63;4969089;28;20201;-73
2020/12/01 01:16:09;;;;;;;11.70;6.93;;;;;;;-0.83;85.17;100956.84;4965738;28;20750;-72
2020/12/01 01:18:35;;;;;;;11.73;6.90;;;;;;;-0.76;85.25;100961.28;4966156;28;20728;-74
2020/12/01 01:21:01;;;;;;;13.10;7.50;;;;;;;-0.68;85.23;100961.50;4967727;28;20820;-73
2020/12/01 01:23:27;;;;;;;13.67;6.63;;;;;;;-0.63;85.14;100960.78;4964112;28;20201;-74
2020/12/01 01:25:53;;;;;;;12.40;7.50;;;;;;;-0.55;84.74;100957.53;4964361;28;20205;-74
2020/12/01 01:28:19;;;;;;;13.53;7.53;;;;;;;-0.49;84.65;100952.53;4962194;28;20245;-72
2020/12/01 01:30:45;;;;;;;13.23;6.90;;;;;;;-0.43;84.09;100957.84;4964889;28;20573;-73
2020/12/01 01:33:12;;;;;;;11.33;6.83;;;;;;;-0.39;83.69;100952.81;4964736;28;20205;-73
2020/12/01 01:35:38;;;;;;;11.00;6.83;;;;;;;-0.33;83.49;100951.25;4963705;28;20202;-73
2020/12/01 01:38:06;;;;;;;15.03;7.60;;;;;;;-0.27;84.16;100948.81;4964165;28;20209;-72
2020/12/01 01:40:32;;;;;;;13.20;7.63;;;;;;;-0.25;83.05;100942.88;4967107;28;20624;-75
2020/12/01 01:42:59;;;;;;;12.47;7.30;;;;;;;-0.17;83.04;100945.63;4965211;28;20233;-72
2020/12/01 01:45:40;;;;;;;11.90;7.73;;;;;;;-0.12;83.18;100943.16;4967813;28;20252;-73
2020/12/01 01:48:16;;;;;;;13.27;7.07;;;;;;;-0.09;82.68;100939.00;4963946;28;20194;-74
2020/12/01 01:50:50;;;;;;;9.27;6.70;;;;;;;-0.07;82.98;100934.75;4964448;28;20281;-74
2020/12/01 01:53:16;;;;;;;12.90;7.13;;;;;;;-0.03;82.32;100941.69;4963585;28;20666;-72
2020/12/01 01:55:43;;;;;;;12.57;6.83;;;;;;;0.01;82.89;100932.34;4964329;28;20570;-74
2020/12/01 01:58:08;;;;;;;12.63;7.67;;;;;;;0.04;82.96;100926.44;4965389;28;20234;-74
2020/12/01 02:00:56;;;;;;;14.27;8.10;;;;;;;0.05;81.99;100930.72;4968001;28;20589;-74
2020/12/01 02:03:36;;;;;;;13.13;7.47;;;;;;;0.10;82.30;100924.00;4964062;28;20261;-70
2020/12/01 02:06:05;;;;;;;15.77;7.43;;;;;;;0.12;82.34;100922.31;4967730;28;20195;-70
2020/12/01 02:08:33;;;;;;;12.13;7.73;;;;;;;0.12;81.06;100920.66;4964417;28;20260;-71
2020/12/01 02:11:00;;;;;;;14.77;8.00;;;;;;;0.15;81.65;100918.13;4966443;28;20223;-72
2020/12/01 02:13:38;;;;;;;13.30;7.73;;;;;;;0.17;80.95;100905.34;4969074;28;20206;-70
2020/12/01 02:16:04;;;;;;;11.27;7.13;;;;;;;0.20;80.49;100907.13;4968255;28;20198;-71
2020/12/01 02:18:34;;;;;;;12.53;7.37;;;;;;;0.18;80.98;100905.38;4965080;28;20225;-71
2020/12/01 02:21:22;;;;;;;12.47;7.77;;;;;;;0.23;81.30;100904.59;4962467;28;20211;-71
2020/12/01 02:23:48;;;;;;;11.33;7.57;;;;;;;0.24;81.49;100916.59;4959629;28;20237;-70
2020/12/01 02:26:14;;;;;;;13.10;7.43;;;;;;;0.24;80.82;100914.03;4964251;28;20276;-71
2020/12/01 02:28:40;;;;;;;14.83;7.57;;;;;;;0.24;80.98;100908.91;4966466;28;20206;-71
2020/12/01 02:31:06;;;;;;;13.73;7.83;;;;;;;0.24;81.63;100907.19;4962207;28;20238;-70
2020/12/01 02:33:32;;;;;;;14.47;7.37;;;;;;;0.24;81.66;100904.63;4966350;28;20207;-70
2020/12/01 02:35:58;;;;;;;13.70;8.00;;;;;;;0.24;81.46;100906.34;4976975;28;20314;-70
2020/12/01 02:38:23;;;;;;;14.27;7.63;;;;;;;0.22;80.38;100908.88;4963620;28;20277;-70
2020/12/01 02:40:49;;;;;;;12.13;7.63;;;;;;;0.22;80.84;100913.13;4965653;28;20383;-70
2020/12/01 02:43:16;;;;;;;11.73;6.80;;;;;;;0.21;80.66;100912.25;4965432;28;20200;-71
2020/12/01 02:45:42;;;;;;;10.80;7.47;;;;;;;0.17;81.00;100911.31;4963746;28;20202;-72
2020/12/01 02:48:08;;;;;;;15.50;7.13;;;;;;;0.17;80.38;100906.19;4967656;28;20732;-70
2020/12/01 02:50:34;;;;;;;13.80;7.50;;;;;;;0.17;80.65;100901.06;4970100;28;20261;-70
2020/12/01 02:52:59;;;;;;;13.30;7.27;;;;;;;0.13;80.56;100895.88;4966806;28;20211;-71
2020/12/01 02:55:25;;;;;;;12.83;7.57;;;;;;;0.12;81.19;100887.31;4969032;28;20205;-70
2020/12/01 02:57:51;;;;;;;13.33;7.73;;;;;;;0.12;81.56;100889.00;4968394;28;20218;-70
2020/12/01 03:00:18;;;;;;;12.87;7.67;;;;;;;0.12;81.01;100889.00;4969923;28;20211;-70
2020/12/01 03:02:44;;;;;;;11.07;7.60;;;;;;;0.14;81.27;100897.56;4965012;28;20232;-70
2020/12/01 03:05:09;;;;;;;14.83;7.90;;;;;;;0.13;81.22;100896.72;4970851;28;20729;-70
2020/12/01 03:07:35;;;;;;;11.47;7.20;;;;;;;0.14;81.41;100901.03;4966948;28;20199;-70
2020/12/01 03:10:01;;;;;;;14.13;7.30;;;;;;;0.14;81.25;100897.56;4966618;28;20249;-71
2020/12/01 03:12:30;;;;;;;12.43;6.83;;;;;;;0.16;80.77;100898.50;4967804;28;20230;-71
2020/12/01 03:14:56;;;;;;;11.17;7.50;;;;;;;0.16;80.64;100898.50;4968666;28;20200;-70
2020/12/01 03:17:23;;;;;;;11.87;7.47;;;;;;;0.16;80.60;100903.63;4968745;28;20213;-72
2020/12/01 03:19:49;;;;;;;11.47;6.97;;;;;;;0.17;80.66;100900.22;4973596;28;20476;-71
2020/12/01 03:22:15;;;;;;;12.93;7.53;;;;;;;0.19;80.77;100901.09;4968407;28;20509;-70
2020/12/01 03:24:41;;;;;;;11.90;7.23;;;;;;;0.20;80.69;100899.44;4971809;28;20234;-70
2020/12/01 03:27:07;;;;;;;10.60;6.57;;;;;;;0.23;80.15;100896.91;4968693;28;20294;-70
2020/12/01 03:29:32;;;;;;;15.33;8.07;;;;;;;0.22;79.65;100888.34;4970582;28;20260;-70
2020/12/01 03:31:58;;;;;;;11.00;7.27;;;;;;;0.23;80.13;100879.84;4968392;28;20217;-70
2020/12/01 03:34:25;;;;;;;13.63;7.87;;;;;;;0.25;80.22;100877.31;4968551;28;20751;-70
2020/12/01 03:36:51;;;;;;;12.77;7.10;;;;;;;0.27;79.96;100875.63;4982111;28;20199;-70
2020/12/01 03:39:17;;;;;;;13.87;7.30;;;;;;;0.29;80.02;100879.09;4981439;28;20635;-70
2020/12/01 03:41:43;;;;;;;10.47;6.60;;;;;;;0.31;79.80;100879.97;4965879;28;20286;-71
2020/12/01 03:44:09;;;;;;;12.00;7.10;;;;;;;0.32;80.09;100871.47;4969885;28;20216;-71
2020/12/01 03:46:35;;;;;;;11.87;7.60;;;;;;;0.33;80.54;100870.59;4969664;28;20233;-71
2020/12/01 03:49:01;;;;;;;11.70;7.23;;;;;;;0.33;79.53;100876.59;4965651;28;20228;-71
2020/12/01 03:51:28;;;;;;;12.70;7.10;;;;;;;0.33;79.93;100870.59;4970532;28;20719;-70
2020/12/01 03:53:54;;;;;;;13.50;8.13;;;;;;;0.34;79.96;100867.22;4967218;28;20199;-70
2020/12/01 03:56:21;;;;;;;13.13;7.67;;;;;;;0.34;79.69;100869.78;4967066;28;20765;-69
2020/12/01 03:58:47;;;;;;;11.73;7.10;;;;;;;0.36;79.99;100870.66;4963913;28;20228;-70
2020/12/01 04:01:13;;;;;;;14.33;7.00;;;;;;;0.36;79.84;100875.81;4970094;28;20466;-71
2020/12/01 04:03:39;;;;;;;15.53;8.03;;;;;;;0.37;79.80;100880.13;4966642;28;20210;-70
2020/12/01 04:06:05;;;;;;;12.63;7.60;;;;;;;0.36;79.96;100884.34;4968977;28;20661;-70
2020/12/01 04:08:32;;;;;;;12.10;7.30;;;;;;;0.36;80.05;100881.78;4966864;28;20195;-71
2020/12/01 04:11:01;;;;;;;12.57;7.63;;;;;;;0.40;80.79;100874.16;4964961;28;20297;-73
2020/12/01 04:13:27;;;;;;;14.63;7.87;;;;;;;0.39;80.30;100881.00;4969140;28;20215;-71
2020/12/01 04:15:53;;;;;;;14.80;8.00;;;;;;;0.39;80.59;100875.88;4968628;28;20198;-70
2020/12/01 04:18:19;;;;;;;12.83;7.23;;;;;;;0.39;80.99;100863.03;4968376;28;20242;-70
2020/12/01 04:20:45;;;;;;;13.00;7.90;;;;;;;0.38;80.99;100863.88;4965398;28;20200;-70
2020/12/01 04:23:11;;;;;;;14.97;7.70;;;;;;;0.38;81.32;100859.59;4965779;28;20256;-71
2020/12/01 04:25:37;;;;;;;13.77;7.97;;;;;;;0.37;81.18;100869.84;4966622;28;20209;-70
2020/12/01 04:28:05;;;;;;;14.50;8.10;;;;;;;0.35;80.99;100869.81;4969568;28;20202;-70
2020/12/01 04:30:31;;;;;;;16.73;8.47;;;;;;;0.35;80.89;100863.78;4968548;28;20211;-70
2020/12/01 04:32:57;;;;;;;13.07;8.07;;;;;;;0.35;80.57;100869.81;4965770;28;20237;-71
2020/12/01 04:35:24;;;;;;;12.97;7.57;;;;;;;0.35;80.29;100876.63;4966444;28;20203;-70
2020/12/01 04:37:50;;;;;;;13.03;7.73;;;;;;;0.36;80.55;100871.53;4964901;28;20207;-70
2020/12/01 04:40:21;;;;;;;13.10;8.00;;;;;;;0.36;80.79;100868.09;4964555;28;20229;-71
2020/12/01 04:42:50;;;;;;;12.70;7.57;;;;;;;0.35;80.29;100868.94;4966732;28;20229;-71
2020/12/01 04:45:17;;;;;;;13.23;7.53;;;;;;;0.34;80.37;100868.06;4964849;28;20589;-72
2020/12/01 04:47:54;;;;;;;13.17;8.17;;;;;;;0.35;81.34;100867.25;4964513;28;20209;-70
2020/12/01 04:50:29;;;;;;;13.43;7.87;;;;;;;0.34;81.42;100867.22;4964077;28;20237;-71
2020/12/01 04:53:25;;;;;;;13.23;8.17;;;;;;;0.32;81.95;100868.91;4968690;28;20222;-70
2020/12/01 04:56:09;;;;;;;14.43;8.27;;;;;;;0.28;82.26;100857.72;4962713;28;20202;-70
2020/12/01 04:58:55;;;;;;;12.97;7.93;;;;;;;0.24;82.94;100850.78;4964242;28;20219;-71
2020/12/01 05:01:44;;;;;;;16.60;8.30;;;;;;;0.19;83.32;100860.06;4966742;28;20227;-71
2020/12/01 05:04:17;;;;;;;15.13;7.90;;;;;;;0.15;83.99;100858.28;4966889;28;20194;-70
2020/12/01 05:06:55;;;;;;;13.47;8.10;;;;;;;0.14;84.21;100867.69;4962769;28;20503;-71
2020/12/01 05:09:32;;;;;;;13.20;8.23;;;;;;;0.13;84.42;100862.53;4968054;28;20229;-72
2020/12/01 05:12:01;;;;;;;14.37;9.00;;;;;;;0.14;85.02;100864.25;4962699;28;20542;-70
2020/12/01 05:14:34;;;;;;;15.17;8.43;;;;;;;0.11;85.29;100859.94;4970368;28;20205;-70
2020/12/01 05:17:32;;;;;;;13.30;8.13;;;;;;;0.10;85.30;100862.44;4964546;28;20752;-70
2020/12/01 05:19:57;;;;;;;12.60;7.63;;;;;;;0.11;85.78;100869.31;4964497;28;20238;-73
2020/12/01 05:22:23;;;;;;;15.33;8.73;;;;;;;0.11;86.02;100875.31;4967418;28;20861;-70
2020/12/01 05:24:52;;;;;;;14.03;7.97;;;;;;;0.11;86.19;100874.47;4969948;28;20666;-70
2020/12/01 05:27:23;;;;;;;14.53;8.27;;;;;;;0.12;86.45;100874.50;4968019;28;20204;-70
2020/12/01 05:29:59;;;;;;;15.80;8.17;;;;;;;0.11;86.03;100870.19;4966315;28;20278;-72
2020/12/01 05:32:26;;;;;;;13.00;8.90;;;;;;;0.10;86.74;100867.59;4972097;28;20559;-71
2020/12/01 05:34:52;;;;;;;15.90;9.47;;;;;;;0.10;86.90;100870.16;4988491;28;20223;-71
2020/12/01 05:37:18;;;;;;;14.23;8.53;;;;;;;0.10;87.02;100881.25;4974829;28;20206;-71
2020/12/01 05:39:45;;;;;;;13.00;7.97;;;;;;;0.12;87.20;100876.16;4977080;28;20716;-70
2020/12/01 05:42:18;;;;;;;15.87;8.43;;;;;;;0.11;87.57;100875.31;4977695;28;20225;-71
2020/12/01 05:44:56;;;;;;;15.83;9.00;;;;;;;0.12;87.78;100882.19;4972277;28;20245;-71
2020/12/01 05:47:33;;;;;;;14.13;7.77;;;;;;;0.10;88.56;100873.56;4971479;28;20212;-70
2020/12/01 05:50:06;;;;;;;16.50;8.90;;;;;;;0.10;88.58;100878.69;4971665;28;20190;-71
2020/12/01 05:52:45;;;;;;;14.77;9.03;;;;;;;0.09;88.67;100868.41;4972668;28;20219;-71
2020/12/01 05:55:14;;;;;;;15.23;8.80;;;;;;;0.07;89.19;100868.41;4976299;28;20548;-70
2020/12/01 05:57:42;;;;;;;17.87;9.47;;;;;;;0.06;89.41;100871.78;4970981;28;20233;-71
2020/12/01 06:00:15;;;;;;;16.67;9.07;;;;;;;0.07;89.51;100864.94;4972734;28;20214;-71
2020/12/01 06:02:50;;;;;;;15.97;9.03;;;;;;;0.07;90.05;100867.50;4971305;28;20238;-71
2020/12/01 06:05:20;;;;;;;15.97;9.03;;;;;;;0.06;89.81;100866.66;4972127;28;20214;-71
2020/12/01 06:07:48;;;;;;;16.10;9.70;;;;;;;0.06;89.84;100870.94;4976350;28;20660;-71
2020/12/01 06:10:27;;;;;;;18.43;9.70;;;;;;;0.04;90.22;100872.59;4990171;28;20202;-71
2020/12/01 06:13:30;;;;;;;17.80;10.93;;;;;;;0.06;90.65;100871.78;4976802;28;20538;-70
2020/12/01 06:16:30;;;;;;;17.70;9.87;;;;;;;0.04;90.55;100872.59;4971621;28;20223;-71
2020/12/01 06:19:08;;;;;;;19.93;10.40;;;;;;;0.04;90.97;100870.91;4985458;28;20290;-71
2020/12/01 06:21:58;;;;;;;17.07;10.00;;;;;;;0.04;90.58;100870.03;4972724;28;20372;-71
2020/12/01 06:24:58;;;;;;;15.60;9.57;;;;;;;0.04;90.82;100873.47;4971462;28;20218;-71
2020/12/01 06:27:57;;;;;;;17.60;9.63;;;;;;;0.07;90.88;100878.66;4977656;28;20198;-70
2020/12/01 06:31:00;;;;;;;16.00;8.37;;;;;;;0.09;91.20;100879.53;4975714;28;20212;-71
2020/12/01 06:33:56;;;;;;;20.20;10.90;;;;;;;0.07;91.26;100882.91;4975598;28;20215;-71
2020/12/01 06:37:07;;;;;;;15.53;9.70;;;;;;;0.10;90.89;100893.22;4981245;28;20294;-71
2020/12/01 06:39:45;;;;;;;15.77;9.50;;;;;;;0.10;91.04;100883.81;4977648;28;20217;-71
2020/12/01 06:42:15;;;;;;;20.40;10.30;;;;;;;0.11;91.12;100887.28;4976220;28;20215;-71
2020/12/01 06:44:44;;;;;;;17.07;10.47;;;;;;;0.11;91.13;100885.56;4979236;28;20207;-71
2020/12/01 06:47:10;;;;;;;18.50;10.33;;;;;;;0.13;91.22;100888.16;4978464;28;20467;-71
2020/12/01 06:49:38;;;;;;;31.40;17.63;;;;;;;0.11;91.28;100884.72;4979453;28;20270;-71
2020/12/01 06:52:10;;;;;;;18.50;11.07;;;;;;;0.14;91.03;100888.19;4977580;28;20290;-70
2020/12/01 06:54:46;;;;;;;19.73;10.80;;;;;;;0.14;91.03;100890.78;4977012;28;20430;-71
2020/12/01 06:57:24;;;;;;;20.07;10.73;;;;;;;0.14;91.03;100893.34;4988790;28;20269;-71
2020/12/01 06:59:50;;;;;;;20.73;11.20;;;;;;;0.16;91.02;100891.66;4978579;28;20697;-70
2020/12/01 07:02:23;;;;;;;19.63;10.90;;;;;;;0.16;91.11;100903.63;4976283;28;20278;-71
2020/12/01 07:04:49;;;;;;;19.43;10.87;;;;;;;0.16;90.81;100901.06;4981431;28;20226;-70
2020/12/01 07:07:27;;;;;;;19.57;11.10;;;;;;;0.15;90.88;100907.00;4976267;28;20297;-71
2020/12/01 07:09:53;;;;;;;20.37;11.20;;;;;;;0.14;90.90;100915.53;4978000;28;20291;-71
2020/12/01 07:12:37;;;;;;;19.80;10.60;;;;;;;0.16;90.88;100911.31;4979419;28;20225;-70
2020/12/01 07:15:12;;;;;;;19.70;10.27;;;;;;;0.17;90.63;100916.44;4981443;28;20209;-71
2020/12/01 07:17:46;;;;;;;20.83;10.83;;;;;;;0.17;90.82;100913.88;4991599;28;20312;-70
2020/12/01 07:20:34;;;;;;;20.93;11.73;;;;;;;0.21;90.85;100916.53;4980905;28;20265;-71
2020/12/01 07:23:10;;;;;;;18.17;10.70;;;;;;;0.19;90.83;100919.06;4978463;28;20237;-71
2020/12/01 07:25:43;;;;;;;18.40;10.73;;;;;;;0.20;90.88;100915.66;4995147;28;20308;-71
2020/12/01 07:28:19;;;;;;;18.63;11.63;;;;;;;0.21;90.61;100922.50;4980120;28;20546;-71
2020/12/01 07:30:50;;;;;;;17.57;10.77;;;;;;;0.22;90.84;100931.09;4981204;28;20277;-71
2020/12/01 07:33:19;;;;;;;19.23;11.10;;;;;;;0.22;90.56;100924.25;4974926;28;20238;-71
2020/12/01 07:35:48;;;;;;;18.77;11.13;;;;;;;0.24;91.02;100922.59;4977656;28;20215;-71
2020/12/01 07:38:27;;;;;;;18.27;10.93;;;;;;;0.25;90.51;100921.75;4977519;28;20414;-71
2020/12/01 07:40:57;;;;;;;19.27;10.60;;;;;;;0.27;90.75;100917.53;4980536;28;20257;-71
2020/12/01 07:43:23;;;;;;;19.67;10.37;;;;;;;0.28;90.34;100921.84;4978389;28;20216;-71
2020/12/01 07:45:59;;;;;;;19.00;11.67;;;;;;;0.29;90.39;100920.13;4977352;28;20260;-70
2020/12/01 07:48:25;;;;;;;19.27;9.97;;;;;;;0.30;90.42;100926.97;4977648;28;20213;-70
2020/12/01 07:51:02;;;;;;;19.10;11.47;;;;;;;0.30;90.03;100932.97;4976210;28;20201;-71
2020/12/01 07:53:33;;;;;;;18.43;10.33;;;;;;;0.32;90.03;100936.44;4976163;28;20206;-71
2020/12/01 07:56:02;;;;;;;19.50;11.37;;;;;;;0.33;89.83;100940.72;4974294;28;20249;-71
2020/12/01 07:58:30;;;;;;;18.90;11.03;;;;;;;0.35;89.96;100945.88;4975010;28;20207;-70
2020/12/01 08:00:58;;;;;;;18.60;10.77;;;;;;;0.34;89.88;100939.91;4975922;28;20220;-71
2020/12/01 08:03:27;;;;;;;19.63;10.73;;;;;;;0.37;89.94;100945.09;4973932;28;20215;-71
2020/12/01 08:05:56;;;;;;;19.40;10.80;;;;;;;0.37;89.64;100946.81;4992801;28;20221;-71
2020/12/01 08:08:23;;;;;;;21.77;11.23;;;;;;;0.38;89.53;100951.09;4979185;28;20289;-71
2020/12/01 08:10:51;;;;;;;21.13;11.13;;;;;;;0.40;89.58;100946.84;4974762;28;20202;-71
2020/12/01 08:13:20;;;;;;;20.07;11.17;;;;;;;0.40;89.16;100946.84;4979323;28;20207;-71
2020/12/01 08:15:47;;;;;;;17.43;10.20;;;;;;;0.45;89.65;100942.69;4977192;28;20278;-71
2020/12/01 08:18:16;;;;;;;20.03;11.13;;;;;;;0.47;89.08;100948.69;4978217;28;20216;-71
2020/12/01 08:20:42;;;;;;;19.60;11.00;;;;;;;0.49;88.79;100954.75;4972869;28;20244;-71
2020/12/01 08:23:11;;;;;;;19.07;10.87;;;;;;;0.51;88.98;100955.66;4974911;28;20759;-71
2020/12/01 08:25:38;;;;;;;20.27;11.67;;;;;;;0.56;88.90;100955.72;4976654;28;20329;-71
2020/12/01 08:28:14;;;;;;;20.77;11.60;;;;;;;0.59;88.85;100960.91;4978278;28;20208;-71
2020/12/01 08:30:52;;;;;;;18.37;10.80;;;;;;;0.62;88.25;100961.00;4978809;28;20295;-71
2020/12/01 08:33:30;;;;;;;20.40;11.10;;;;;;;0.64;88.11;100961.03;4979040;28;20203;-71
2020/12/01 08:36:04;;;;;;;20.13;10.63;;;;;;;0.69;88.05;100959.41;4993086;28;20239;-71
2020/12/01 08:38:51;;;;;;;19.20;10.57;;;;;;;0.71;87.99;100965.44;4972515;28;20213;-71
2020/12/01 08:41:28;;;;;;;21.93;10.97;;;;;;;0.71;87.56;100963.72;4975121;28;20830;-71
2020/12/01 08:44:03;;;;;;;20.23;11.13;;;;;;;0.72;87.44;100968.03;4970846;28;20257;-71
2020/12/01 08:46:30;;;;;;;20.97;11.37;;;;;;;0.75;87.50;100974.91;4975575;28;20281;-70
2020/12/01 08:49:06;;;;;;;18.90;10.33;;;;;;;0.77;87.26;100972.38;4979527;28;20297;-71
2020/12/01 08:51:36;;;;;;;18.33;10.40;;;;;;;0.80;87.35;100978.44;4974636;28;20260;-71
2020/12/01 08:54:12;;;;;;;18.77;10.93;;;;;;;0.84;87.81;100979.38;4975289;28;20215;-71
2020/12/01 08:56:54;;;;;;;18.57;11.03;;;;;;;0.86;87.19;100981.16;4988810;28;20276;-71
2020/12/01 08:59:26;;;;;;;17.80;10.80;;;;;;;0.90;86.94;100982.06;4976939;28;20216;-71
2020/12/01 09:01:54;;;;;;;18.53;11.00;;;;;;;0.94;87.21;100984.72;4973733;28;20225;-71
2020/12/01 09:04:24;;;;;;;17.97;10.53;;;;;;;0.96;86.47;100991.59;4977876;28;20214;-71
2020/12/01 09:06:51;;;;;;;18.70;11.07;;;;;;;1.01;86.32;100998.53;4977698;28;20212;-71
2020/12/01 09:09:22;;;;;;;18.30;10.77;;;;;;;1.05;86.12;100999.47;4975422;28;20198;-71
2020/12/01 09:12:07;;;;;;;18.87;10.90;;;;;;;1.08;85.73;101000.38;4992689;28;20232;-70
2020/12/01 09:14:52;;;;;;;19.70;11.13;;;;;;;1.13;86.31;100991.06;4976152;28;20654;-71
2020/12/01 09:17:26;;;;;;;17.30;10.80;;;;;;;1.13;85.69;100992.78;4970977;28;20210;-71
2020/12/01 09:20:19;;;;;;;18.67;10.87;;;;;;;1.15;85.29;100991.09;4972820;28;20224;-70
2020/12/01 09:22:46;;;;;;;17.87;10.53;;;;;;;1.19;85.13;100999.72;4974457;28;20284;-71
2020/12/01 09:25:18;;;;;;;19.63;10.57;;;;;;;1.22;85.10;100992.94;4976426;28;20223;-71
2020/12/01 09:27:46;;;;;;;20.40;11.40;;;;;;;1.23;85.08;100989.53;4974323;28;20226;-71
2020/12/01 09:30:18;;;;;;;18.23;10.00;;;;;;;1.24;85.01;100991.25;4971552;28;20724;-71
2020/12/01 09:32:44;;;;;;;18.10;10.73;;;;;;;1.25;84.12;100995.56;4977395;28;20300;-71
2020/12/01 09:35:10;;;;;;;17.63;10.33;;;;;;;1.32;84.75;100992.25;4974051;28;20210;-71
2020/12/01 09:37:36;;;;;;;18.47;10.43;;;;;;;1.36;84.84;100990.59;4974496;28;20195;-71
2020/12/01 09:40:03;;;;;;;22.80;12.47;;;;;;;1.42;84.99;100993.25;4991705;28;20286;-71
2020/12/01 09:42:31;;;;;;;20.47;12.20;;;;;;;1.47;84.81;100988.22;4974627;28;20241;-71
2020/12/01 09:47:42;;;;;;;16.97;10.63;;;;;;;1.51;84.56;100979.72;4973678;28;20221;-71
2020/12/01 09:50:10;;;;;;;18.60;10.27;;;;;;;1.56;84.58;100988.38;4974760;28;20207;-71
2020/12/01 09:55:36;;;;;;;18.90;10.50;;;;;;;1.67;84.60;100985.97;4977786;28;20245;-71
2020/12/01 09:58:10;;;;;;;19.20;10.90;;;;;;;1.70;84.99;100993.72;4994204;28;20713;-71
2020/12/01 10:00:59;;;;;;;18.50;11.23;;;;;;;1.75;84.99;100994.66;4978246;28;20798;-71
2020/12/01 10:09:09;;;;;;;20.57;10.67;;;;;;;1.85;84.06;101003.41;4981697;28;20194;-71
2020/12/01 10:12:09;;;;;;;22.47;11.53;;;;;;;1.86;83.75;101003.41;4990510;28;20226;-71
2020/12/01 10:17:47;;;;;;;20.73;11.87;;;;;;;1.87;82.87;101005.16;4977821;28;20252;-71
2020/12/01 10:34:25;;;;;;;18.07;11.03;;;;;;;2.14;81.05;101013.25;4978822;28;20194;-71
2020/12/01 10:36:53;;;;;;;19.03;10.73;;;;;;;2.16;80.93;101004.72;4974985;28;20210;-71
2020/12/01 10:39:19;;;;;;;17.43;10.13;;;;;;;2.23;80.92;101003.97;4977363;28;20229;-70
2020/12/01 10:41:46;;;;;;;20.40;11.80;;;;;;;2.25;80.53;101004.88;4971773;28;20236;-71
2020/12/01 10:44:12;;;;;;;17.97;10.47;;;;;;;2.31;80.51;101014.38;4972976;28;20237;-71
2020/12/01 10:46:38;;;;;;;20.83;11.80;;;;;;;2.34;79.96;101022.16;4975501;28;20197;-71
2020/12/01 10:49:04;;;;;;;19.20;10.97;;;;;;;2.35;79.32;101023.00;4976045;28;20230;-71
2020/12/01 10:51:32;;;;;;;17.83;10.43;;;;;;;2.36;78.52;101017.88;4973389;28;20257;-71
2020/12/01 10:53:58;;;;;;;19.17;10.17;;;;;;;2.40;78.16;101024.78;4978909;28;20760;-71
2020/12/01 10:56:24;;;;;;;16.80;10.30;;;;;;;2.42;78.84;101022.22;4980377;28;20210;-71
2020/12/01 10:58:51;;;;;;;17.20;10.43;;;;;;;2.52;78.89;101018.09;4977437;28;20198;-71
2020/12/01 11:01:17;;;;;;;20.40;11.13;;;;;;;2.53;78.31;101024.94;4976166;28;20222;-71
2020/12/01 11:03:43;;;;;;;16.73;10.67;;;;;;;2.58;78.52;101031.88;4973083;28;20194;-70
2020/12/01 11:06:09;;;;;;;18.27;10.20;;;;;;;2.61;77.74;101031.94;4976007;28;20224;-71
2020/12/01 11:08:35;;;;;;;16.87;10.33;;;;;;;2.67;76.92;101032.84;4971725;28;20194;-71
2020/12/01 11:11:01;;;;;;;19.27;11.07;;;;;;;2.73;77.66;101030.38;4975862;28;20199;-71
2020/12/01 11:13:27;;;;;;;16.97;10.77;;;;;;;2.79;77.82;101025.28;4967839;28;20286;-70
2020/12/01 11:15:55;;;;;;;21.67;12.97;;;;;;;2.77;77.43;101025.25;4972832;28;20194;-71
2020/12/01 11:18:21;;;;;;;20.13;11.90;;;;;;;2.85;77.85;101020.22;4972965;28;20622;-71
2020/12/01 11:20:49;;;;;;;21.17;13.83;;;;;;;2.91;77.45;101030.59;4973085;28;20227;-71
2020/12/01 11:23:15;;;;;;;19.40;10.67;;;;;;;2.93;76.80;101034.03;4970876;28;20577;-73
2020/12/01 11:25:40;;;;;;;16.90;9.97;;;;;;;2.92;76.18;101034.00;4975379;28;20201;-73
2020/12/01 11:28:06;;;;;;;17.33;10.53;;;;;;;2.95;76.77;101028.91;4974647;28;20702;-73
2020/12/01 11:30:32;;;;;;;18.77;10.27;;;;;;;2.94;76.94;101030.63;4974754;28;20224;-73
2020/12/01 11:32:59;;;;;;;15.27;10.10;;;;;;;2.98;76.90;101027.22;4974717;28;20641;-73
2020/12/01 11:35:25;;;;;;;16.07;10.40;;;;;;;2.97;76.65;101038.41;4987893;28;20214;-73
2020/12/01 11:37:52;;;;;;;17.70;10.07;;;;;;;2.98;76.80;101029.81;4974208;28;20198;-71
2020/12/01 11:40:18;;;;;;;16.17;10.13;;;;;;;3.06;77.78;101034.19;4972252;28;20217;-71
2020/12/01 11:42:44;;;;;;;16.23;10.60;;;;;;;3.01;76.09;101042.72;4974624;28;20257;-71
2020/12/01 11:45:11;;;;;;;15.27;9.30;;;;;;;3.02;76.71;101046.16;4972622;28;20190;-70
2020/12/01 11:47:37;;;;;;;17.53;9.93;;;;;;;2.96;75.91;101051.25;4974532;28;20198;-71
2020/12/01 11:50:06;;;;;;;17.27;9.63;;;;;;;2.93;76.15;101046.06;4972030;28;20667;-71
2020/12/01 11:52:32;;;;;;;16.37;9.73;;;;;;;2.94;76.50;101051.22;4974872;28;20922;-71
2020/12/01 11:54:57;;;;;;;16.03;9.80;;;;;;;2.94;77.04;101050.38;4973354;28;20284;-71
2020/12/01 11:57:23;;;;;;;18.47;9.80;;;;;;;2.99;77.14;101047.00;4966308;28;20231;-71
2020/12/01 11:59:49;;;;;;;16.10;9.93;;;;;;;3.00;76.70;101046.13;4950990;28;20215;-71
2020/12/01 12:02:15;;;;;;;20.07;10.80;;;;;;;3.04;76.19;101054.75;4953872;28;20279;-71
2020/12/01 12:04:44;;;;;;;16.63;9.77;;;;;;;3.06;75.89;101054.78;4952101;28;20228;-71